Arcadia, WI

5:45 AM CDT on September 20, 2019 (GMT -0500)
Wickham valley | | Change Station
Active Advisory: Dense Fog Advisory

Elev 872 ft 44.34 °N, 91.51 °W | Updated 1 minute ago

Fog
Fog
63.7 °F
Feels Like 63.7 °F
N
0
Wind Variable Wind from ENE
Gusts 0.0 mph

Today
High -- | Low -- °F
--% Chance of Precip.
Yesterday
High -- | Low -- °F
Precip. -- in
Pressure 30.07 in
Visibility 0.5 miles
Clouds Overcast 200 ft
Dew Point 63 °F
Humidity 99%
Rainfall 0.01 in
Snow Depth Not available.
6:50 AM 7:07 PM
Waning Gibbous, 67% visible
METAR KONA 201035Z AUTO 00000KT 1/2SM FG OVC002 19/18 A3007 RMK AO2
Pressure 30.07 in
Visibility 0.5 miles
Clouds Overcast 200 ft
Dew Point 63 °F
Humidity 99%
Rainfall 0.01 in
Snow Depth Not available.
6:50 AM 7:07 PM
Waning Gibbous, 67% visible
METAR KONA 201035Z AUTO 00000KT 1/2SM FG OVC002 19/18 A3007 RMK AO2

Get Your Daily Forecast Email!

Thanks for signing up!

Be on the lookout for a verification email in your inbox.

You'll start receiving severe weather alerts in your inbox..

×

10-Day Weather Forecast

Almanac

Astronomy

Sep. 20, 2019 Rise Set
Actual Time
Civil Twilight
Nautical Twilight
Astronomical Twilight
Moon
Length of Visible Light
Length of Day
Tomorrow will be .
, % of the Moon is Illuminated

Today's Extremes

State Highs State Lows

Community

WunderPhotos

Category 6

Welcome to Category 6. This is the collective home for Weather Underground's featured writeups by Dr. Jeff Masters (right), Bob Henson (left), Chris Burt, and other regular contributors.

Nearby

Air Quality

  Air Quality AQ Index Pollutant
Not available.

Snow Depth

Station Depth Elevation

Earthquake Activity

City Distance Mag. Time & Date
Minimum magnitude displayed is 2.5.

Coastal Water Temperatures

Place Temperature

Stations

Nearby Weather Stations

Station Location Temp. Windchill Dew Point Humidity Wind Precip. Elev Updated Type
                   

Watches & Warnings

Dense Fog Advisory
Issued: 4:23 AM CDT Sep. 20, 2019 – National Weather Service

... Dense fog advisory in effect until 10 am CDT this morning...

The National Weather Service in La Crosse has issued a dense fog
advisory, which is in effect until 10 am CDT this morning.

* Visibility... one-quarter mile or less.

* Impacts... slow travel due to low visibility. In some areas,
visibility may be near zero at times. The morning commute will
be impacted.

Precautionary/preparedness actions...

A dense fog advisory means visibilities will frequently be
reduced to less than one quarter mile. If driving, slow down, use
low-beam headlights, and leave plenty of distance ahead of you.